createdAt,value
2018-05-02T00:01:04.182Z,12.77
2018-05-02T00:03:30.930Z,13.37
2018-05-02T00:06:01.413Z,14.57
2018-05-02T00:08:27.912Z,14.03
2018-05-02T00:10:54.619Z,13.60
2018-05-02T00:13:21.394Z,13.57
2018-05-02T00:15:48.149Z,13.90
2018-05-02T00:18:14.759Z,13.93
2018-05-02T00:20:41.452Z,12.47
2018-05-02T00:23:08.066Z,13.33
2018-05-02T00:25:34.698Z,14.23
2018-05-02T00:28:08.117Z,14.10
2018-05-02T00:30:34.659Z,14.20
2018-05-02T00:33:02.030Z,12.80
2018-05-02T00:35:28.735Z,14.27
2018-05-02T00:38:00.581Z,14.23
2018-05-02T00:40:27.305Z,14.37
2018-05-02T00:42:54.014Z,14.03
2018-05-02T00:45:20.669Z,14.60
2018-05-02T00:47:50.543Z,14.63
2018-05-02T00:50:17.026Z,14.57
2018-05-02T00:52:43.681Z,13.47
2018-05-02T00:55:10.213Z,14.10
2018-05-02T00:57:37.054Z,13.60
2018-05-02T01:00:03.657Z,15.27
2018-05-02T01:02:30.317Z,14.63
2018-05-02T01:04:57.040Z,14.73
2018-05-02T01:07:27.319Z,15.27
2018-05-02T01:09:54.945Z,13.93
2018-05-02T01:12:21.426Z,13.87
2018-05-02T01:14:48.037Z,13.93
2018-05-02T01:17:14.920Z,13.40
2018-05-02T01:19:41.733Z,14.00
2018-05-02T01:22:08.292Z,13.73
2018-05-02T01:24:35.131Z,13.93
2018-05-02T01:27:02.550Z,13.83
2018-05-02T01:29:32.949Z,13.77
2018-05-02T01:31:59.574Z,12.90
2018-05-02T01:34:26.177Z,13.27
2018-05-02T01:36:53.350Z,13.43
2018-05-02T01:39:19.964Z,14.80
2018-05-02T01:41:46.618Z,14.33
2018-05-02T01:44:13.154Z,13.40
2018-05-02T01:46:43.963Z,13.93
2018-05-02T01:49:22.394Z,14.20
2018-05-02T01:51:49.161Z,14.50
2018-05-02T01:54:15.893Z,12.60
2018-05-02T01:56:48.318Z,13.40
2018-05-02T01:59:14.882Z,13.50
2018-05-02T02:01:41.443Z,14.50
2018-05-02T02:04:08.010Z,14.50
2018-05-02T02:06:34.814Z,14.40
2018-05-02T02:09:01.382Z,14.07
2018-05-02T02:11:28.041Z,14.83
2018-05-02T02:13:54.785Z,13.47
2018-05-02T02:16:27.442Z,14.10
2018-05-02T02:18:54.105Z,14.00
2018-05-02T02:21:20.731Z,13.77
2018-05-02T02:23:47.661Z,14.77
2018-05-02T02:26:18.020Z,14.37
2018-05-02T02:28:44.682Z,13.80
2018-05-02T02:31:11.449Z,14.97
2018-05-02T02:33:38.132Z,13.87
2018-05-02T02:36:08.821Z,14.40
2018-05-02T02:38:35.462Z,15.13
2018-05-02T02:41:02.165Z,14.07
2018-05-02T02:43:28.784Z,14.60
2018-05-02T02:45:59.600Z,14.03
2018-05-02T02:48:26.296Z,13.63
2018-05-02T02:50:52.958Z,13.80
2018-05-02T02:53:19.629Z,14.80
2018-05-02T02:55:46.268Z,13.07
2018-05-02T02:58:13.000Z,13.93
2018-05-02T03:00:40.025Z,12.80
2018-05-02T03:03:06.772Z,13.67
2018-05-02T03:05:33.628Z,12.77
2018-05-02T03:08:00.335Z,13.17
2018-05-02T03:10:27.298Z,13.70
2018-05-02T03:12:53.871Z,12.87
2018-05-02T03:15:20.569Z,12.40
2018-05-02T03:17:51.947Z,13.40
2018-05-02T03:20:18.517Z,13.10
2018-05-02T03:22:45.117Z,13.67
2018-05-02T03:25:11.857Z,12.27
2018-05-02T03:27:41.997Z,13.23
2018-05-02T03:30:08.717Z,13.23
2018-05-02T03:32:35.453Z,14.60
2018-05-02T03:35:02.124Z,13.77
2018-05-02T03:37:32.525Z,13.80
2018-05-02T03:39:59.225Z,14.07
2018-05-02T03:42:25.985Z,15.10
2018-05-02T03:44:52.686Z,15.43
2018-05-02T03:47:23.492Z,14.70
2018-05-02T03:49:50.192Z,15.43
2018-05-02T03:52:16.918Z,15.20
2018-05-02T03:54:43.657Z,15.50
2018-05-02T03:57:13.951Z,15.30
2018-05-02T03:59:52.596Z,14.07
2018-05-02T04:02:31.134Z,14.23
2018-05-02T04:05:09.705Z,15.30
2018-05-02T04:07:40.023Z,14.57
2018-05-02T04:10:07.270Z,14.40
2018-05-02T04:12:34.381Z,14.93
2018-05-02T04:15:01.011Z,13.23
2018-05-02T04:17:30.907Z,12.73
2018-05-02T04:19:57.610Z,13.23
2018-05-02T04:22:24.289Z,12.30
2018-05-02T04:24:51.018Z,11.77
2018-05-02T04:27:24.785Z,11.80
2018-05-02T04:29:51.471Z,12.00
2018-05-02T04:32:18.165Z,10.70
2018-05-02T04:34:44.921Z,12.97
2018-05-02T04:37:14.986Z,12.23
2018-05-02T04:39:41.739Z,11.73
2018-05-02T04:42:08.418Z,12.93
2018-05-02T04:44:35.211Z,12.20
2018-05-02T04:47:05.573Z,11.83
2018-05-02T04:49:32.314Z,12.37
2018-05-02T04:52:03.781Z,13.30
2018-05-02T04:54:30.525Z,11.53
2018-05-02T04:57:01.735Z,12.90
2018-05-02T04:59:28.492Z,13.37
2018-05-02T05:01:55.417Z,13.37
2018-05-02T05:04:22.003Z,13.47
2018-05-02T05:06:49.750Z,12.57
2018-05-02T05:09:16.419Z,11.03
2018-05-02T05:11:43.166Z,11.67
2018-05-02T05:14:09.735Z,11.53
2018-05-02T05:16:40.167Z,11.53
2018-05-02T05:19:06.845Z,12.90
2018-05-02T05:21:33.538Z,13.67
2018-05-02T05:24:00.411Z,13.07
2018-05-02T05:26:28.257Z,11.93
2018-05-02T05:28:54.990Z,10.63
2018-05-02T05:31:21.669Z,12.00
2018-05-02T05:33:48.681Z,12.47
2018-05-02T05:36:18.637Z,13.67
2018-05-02T05:38:45.307Z,12.00
2018-05-02T05:41:12.606Z,11.43
2018-05-02T05:43:39.405Z,11.97
2018-05-02T05:46:09.198Z,13.23
2018-05-02T05:48:35.832Z,13.83
2018-05-02T05:51:02.437Z,14.27
2018-05-02T05:53:29.065Z,13.23
2018-05-02T05:55:56.944Z,13.10
2018-05-02T05:58:23.594Z,13.17
2018-05-02T06:00:50.324Z,12.37
2018-05-02T06:03:16.939Z,12.33
2018-05-02T06:05:47.177Z,12.23
2018-05-02T06:08:13.858Z,12.10
2018-05-02T06:10:40.539Z,11.67
2018-05-02T06:13:07.135Z,11.67
2018-05-02T06:15:37.904Z,11.23
2018-05-02T06:18:04.582Z,11.30
2018-05-02T06:20:31.296Z,12.00
2018-05-02T06:22:59.517Z,11.67
2018-05-02T06:25:31.253Z,12.10
2018-05-02T06:27:57.817Z,11.80
2018-05-02T06:30:24.437Z,12.23
2018-05-02T06:32:51.014Z,11.40
2018-05-02T06:35:22.746Z,11.07
2018-05-02T06:37:49.425Z,10.90
2018-05-02T06:40:15.987Z,11.73
2018-05-02T06:42:42.980Z,11.60
2018-05-02T06:45:11.154Z,11.30
2018-05-02T06:47:37.891Z,11.47
2018-05-02T06:50:04.590Z,11.70
2018-05-02T06:52:31.333Z,11.67
2018-05-02T06:54:58.029Z,11.20
2018-05-02T06:57:25.410Z,11.00
2018-05-02T06:59:52.021Z,11.67
2018-05-02T07:02:18.739Z,10.53
2018-05-02T07:04:45.521Z,11.27
2018-05-02T07:07:16.020Z,10.63
2018-05-02T07:09:42.607Z,11.63
2018-05-02T07:12:09.168Z,12.40
2018-05-02T07:14:35.769Z,12.00
2018-05-02T07:17:02.630Z,11.53
2018-05-02T07:19:29.338Z,12.57
2018-05-02T07:21:55.849Z,11.43
2018-05-02T07:24:22.823Z,12.33
2018-05-02T07:26:50.679Z,11.33
2018-05-02T07:29:17.408Z,12.43
2018-05-02T07:31:45.044Z,11.93
2018-05-02T07:34:11.629Z,11.97
2018-05-02T07:36:38.149Z,11.20
2018-05-02T07:39:04.783Z,11.83
2018-05-02T07:41:31.470Z,10.23
2018-05-02T07:43:58.190Z,11.17
2018-05-02T07:46:24.872Z,10.63
2018-05-02T07:48:51.569Z,11.03
2018-05-02T07:51:18.287Z,10.87
2018-05-02T07:53:44.988Z,12.83
2018-05-02T07:56:11.867Z,10.27
2018-05-02T07:58:38.619Z,11.30
2018-05-02T08:01:05.414Z,10.77
2018-05-02T08:03:32.160Z,10.87
2018-05-02T08:06:02.227Z,11.20
2018-05-02T08:08:28.744Z,10.43
2018-05-02T08:10:55.411Z,10.43
2018-05-02T08:13:22.069Z,9.57
2018-05-02T08:15:49.882Z,10.70
2018-05-02T08:18:16.593Z,10.17
2018-05-02T08:20:43.197Z,9.67
2018-05-02T08:23:09.897Z,10.20
2018-05-02T08:25:43.308Z,9.93
2018-05-02T08:28:09.885Z,9.63
2018-05-02T08:30:36.501Z,10.90
2018-05-02T08:33:03.173Z,10.50
2018-05-02T08:35:29.728Z,10.17
2018-05-02T08:37:56.285Z,10.27
2018-05-02T08:40:22.901Z,10.67
2018-05-02T08:42:49.532Z,9.93
2018-05-02T08:45:19.504Z,10.97
2018-05-02T08:47:46.356Z,10.57
2018-05-02T08:50:13.088Z,11.07
2018-05-02T08:52:39.697Z,10.70
2018-05-02T08:55:09.304Z,9.70
2018-05-02T08:57:35.991Z,10.67
2018-05-02T09:00:02.576Z,10.60
2018-05-02T09:02:29.283Z,10.00
2018-05-02T09:04:55.857Z,10.13
2018-05-02T09:07:22.793Z,10.00
2018-05-02T09:09:49.619Z,10.17
2018-05-02T09:12:16.195Z,12.13
2018-05-02T09:14:43.980Z,9.43
2018-05-02T09:17:10.702Z,9.23
2018-05-02T09:19:37.403Z,10.27
2018-05-02T09:22:04.012Z,10.47
2018-05-02T09:24:38.516Z,10.17
2018-05-02T09:27:05.289Z,9.73
2018-05-02T09:29:32.088Z,10.07
2018-05-02T09:31:58.978Z,9.17
2018-05-02T09:34:25.765Z,9.43
2018-05-02T09:36:52.473Z,9.50
2018-05-02T09:39:19.146Z,9.43
2018-05-02T09:41:45.721Z,9.67
2018-05-02T09:44:12.390Z,10.03
2018-05-02T09:46:42.224Z,9.67
2018-05-02T09:49:09.020Z,9.30
2018-05-02T09:51:36.245Z,9.40
2018-05-02T09:54:02.786Z,9.50
2018-05-02T09:56:35.645Z,9.43
2018-05-02T09:59:02.917Z,9.63
2018-05-02T10:01:29.653Z,10.00
2018-05-02T10:03:56.550Z,9.03
2018-05-02T10:06:23.369Z,9.37
2018-05-02T10:08:50.432Z,9.50
2018-05-02T10:11:17.726Z,9.60
2018-05-02T10:13:45.096Z,9.03
2018-05-02T10:16:18.633Z,9.13
2018-05-02T10:18:45.505Z,8.20
2018-05-02T10:21:12.185Z,9.60
2018-05-02T10:23:38.969Z,9.27
2018-05-02T10:26:09.008Z,9.73
2018-05-02T10:28:35.593Z,9.30
2018-05-02T10:31:02.245Z,8.63
2018-05-02T10:33:29.118Z,9.37
2018-05-02T10:35:59.824Z,8.60
2018-05-02T10:38:26.450Z,8.70
2018-05-02T10:40:53.062Z,9.00
2018-05-02T10:43:19.724Z,8.10
2018-05-02T10:45:51.787Z,9.33
2018-05-02T10:48:18.526Z,9.33
2018-05-02T10:50:45.435Z,9.03
2018-05-02T10:53:12.103Z,9.90
2018-05-02T10:55:42.545Z,11.03
2018-05-02T10:58:09.209Z,9.30
2018-05-02T11:00:35.806Z,9.20
2018-05-02T11:03:02.466Z,8.87
2018-05-02T11:05:33.479Z,9.77
2018-05-02T11:08:00.335Z,10.87
2018-05-02T11:10:27.049Z,9.83
2018-05-02T11:12:53.782Z,10.47
2018-05-02T11:15:23.848Z,9.80
2018-05-02T11:17:50.681Z,9.37
2018-05-02T11:20:17.398Z,9.87
2018-05-02T11:22:43.992Z,9.50
2018-05-02T11:25:14.914Z,8.77
2018-05-02T11:27:41.603Z,8.63
2018-05-02T11:30:08.213Z,8.97
2018-05-02T11:32:34.658Z,8.97
2018-05-02T11:35:01.687Z,8.93
2018-05-02T11:37:28.470Z,8.90
2018-05-02T11:39:55.302Z,9.20
2018-05-02T11:42:22.270Z,8.33
2018-05-02T11:44:57.157Z,8.13
2018-05-02T11:47:23.885Z,9.07
2018-05-02T11:49:50.591Z,8.33
2018-05-02T11:52:17.415Z,8.03
2018-05-02T11:54:45.058Z,8.17
2018-05-02T11:57:11.884Z,8.40
2018-05-02T11:59:38.500Z,8.40
2018-05-02T12:02:05.172Z,9.17
2018-05-02T12:04:45.618Z,9.27
2018-05-02T12:07:12.267Z,8.70
2018-05-02T12:09:39.113Z,8.07
2018-05-02T12:12:05.769Z,9.27
2018-05-02T12:14:36.413Z,9.03
2018-05-02T12:17:04.014Z,8.43
2018-05-02T12:19:30.776Z,10.23
2018-05-02T12:21:57.397Z,9.60
2018-05-02T12:24:27.736Z,8.63
2018-05-02T12:26:54.381Z,10.13
2018-05-02T12:29:20.989Z,9.47
2018-05-02T12:31:47.722Z,8.13
2018-05-02T12:34:15.398Z,8.53
2018-05-02T12:36:41.993Z,9.60
2018-05-02T12:39:08.672Z,8.07
2018-05-02T12:41:35.282Z,7.87
2018-05-02T12:44:02.034Z,8.90
2018-05-02T12:46:28.689Z,8.57
2018-05-02T12:48:55.510Z,8.30
2018-05-02T12:51:22.206Z,9.03
2018-05-02T12:53:48.904Z,8.60
2018-05-02T12:56:17.035Z,8.13
2018-05-02T12:58:43.649Z,8.87
2018-05-02T13:01:10.633Z,8.43
2018-05-02T13:03:37.863Z,8.60
2018-05-02T13:06:08.366Z,8.33
2018-05-02T13:08:34.877Z,7.70
2018-05-02T13:11:01.557Z,8.30
2018-05-02T13:13:28.197Z,7.90
2018-05-02T13:15:58.810Z,8.27
2018-05-02T13:18:25.453Z,7.53
2018-05-02T13:20:52.132Z,6.77
2018-05-02T13:23:19.314Z,8.37
2018-05-02T13:25:46.207Z,7.77
2018-05-02T13:28:13.414Z,8.20
2018-05-02T13:30:40.129Z,7.87
2018-05-02T13:33:08.280Z,8.40
2018-05-02T13:35:41.616Z,8.17
2018-05-02T13:38:08.293Z,8.03
2018-05-02T13:40:35.046Z,7.57
2018-05-02T13:43:01.771Z,8.17
2018-05-02T13:45:28.688Z,8.27
2018-05-02T13:47:55.235Z,8.30
2018-05-02T13:50:22.312Z,8.40
2018-05-02T13:52:49.274Z,8.30
2018-05-02T13:55:16.846Z,8.27
2018-05-02T13:57:43.640Z,8.10
2018-05-02T14:00:10.274Z,7.97
2018-05-02T14:02:36.938Z,7.90
2018-05-02T14:05:09.395Z,7.83
2018-05-02T14:07:36.025Z,7.70
2018-05-02T14:10:02.703Z,7.83
2018-05-02T14:12:29.266Z,7.73
2018-05-02T14:14:59.440Z,7.70
2018-05-02T14:17:26.405Z,8.10
2018-05-02T14:19:53.107Z,7.60
2018-05-02T14:22:19.694Z,7.83
2018-05-02T14:24:49.757Z,7.83
2018-05-02T14:27:16.485Z,8.50
2018-05-02T14:29:43.488Z,8.10
2018-05-02T14:32:10.175Z,7.30
2018-05-02T14:34:40.389Z,7.27
2018-05-02T14:37:06.958Z,7.13
2018-05-02T14:39:33.673Z,8.07
2018-05-02T14:42:00.362Z,7.97
2018-05-02T14:44:30.790Z,8.10
2018-05-02T14:46:57.492Z,7.87
2018-05-02T14:49:24.937Z,7.73
2018-05-02T14:51:51.878Z,8.83
2018-05-02T14:54:18.779Z,8.53
2018-05-02T14:56:45.342Z,8.70
2018-05-02T14:59:11.964Z,8.47
2018-05-02T15:01:38.596Z,8.17
2018-05-02T15:04:06.559Z,9.00
2018-05-02T15:06:33.049Z,8.47
2018-05-02T15:08:59.610Z,8.33
2018-05-02T15:11:26.361Z,8.57
2018-05-02T15:13:54.029Z,8.40
2018-05-02T15:16:20.680Z,8.93
2018-05-02T15:18:47.537Z,9.07
2018-05-02T15:21:14.490Z,8.83
2018-05-02T15:23:52.571Z,8.80
2018-05-02T15:26:19.183Z,9.37
2018-05-02T15:28:45.984Z,9.93
2018-05-02T15:31:12.643Z,8.93
2018-05-02T15:33:46.309Z,9.37
2018-05-02T15:36:13.014Z,10.63
2018-05-02T15:38:39.657Z,9.90
2018-05-02T15:41:06.305Z,9.27
2018-05-02T15:43:32.965Z,9.60
2018-05-02T15:45:59.733Z,10.47
2018-05-02T15:48:26.423Z,9.60
2018-05-02T15:50:53.114Z,9.17
2018-05-02T15:53:19.682Z,8.90
2018-05-02T15:55:49.314Z,9.80
2018-05-02T15:58:16.047Z,9.23
2018-05-02T16:00:42.542Z,9.43
2018-05-02T16:03:09.374Z,9.03
2018-05-02T16:05:39.867Z,9.70
2018-05-02T16:08:06.514Z,8.77
2018-05-02T16:10:33.332Z,9.57
2018-05-02T16:12:59.862Z,9.20
2018-05-02T16:15:30.089Z,9.77
2018-05-02T16:17:56.666Z,9.30
2018-05-02T16:20:23.365Z,9.37
2018-05-02T16:22:50.569Z,9.43
2018-05-02T16:25:20.427Z,10.37
2018-05-02T16:27:47.222Z,9.57
2018-05-02T16:30:13.769Z,10.20
2018-05-02T16:32:40.392Z,9.60
2018-05-02T16:35:08.077Z,9.83
2018-05-02T16:37:34.674Z,9.70
2018-05-02T16:40:01.231Z,10.67
2018-05-02T16:42:27.894Z,10.40
2018-05-02T16:44:54.818Z,11.83
2018-05-02T16:47:21.353Z,11.20
2018-05-02T16:49:48.035Z,10.50
2018-05-02T16:52:14.531Z,12.00
2018-05-02T16:54:51.427Z,11.50
2018-05-02T16:57:18.552Z,11.83
2018-05-02T16:59:45.198Z,11.50
2018-05-02T17:02:12.203Z,11.10
2018-05-02T17:04:44.334Z,12.57
2018-05-02T17:07:11.002Z,12.20
2018-05-02T17:09:37.601Z,12.20
2018-05-02T17:12:04.319Z,13.03
2018-05-02T17:14:32.274Z,13.63
2018-05-02T17:16:58.966Z,12.90
2018-05-02T17:19:25.535Z,14.43
2018-05-02T17:21:52.501Z,13.57
2018-05-02T17:24:25.013Z,15.33
2018-05-02T17:26:51.642Z,14.40
2018-05-02T17:29:18.427Z,15.13
2018-05-02T17:31:45.590Z,14.03
2018-05-02T17:34:15.498Z,13.87
2018-05-02T17:36:42.163Z,14.80
2018-05-02T17:39:08.751Z,13.10
2018-05-02T17:41:36.328Z,14.43
2018-05-02T17:44:06.972Z,14.27
2018-05-02T17:46:33.563Z,15.33
2018-05-02T17:49:00.009Z,14.10
2018-05-02T17:51:26.991Z,14.40
2018-05-02T17:54:00.195Z,13.73
2018-05-02T17:56:26.850Z,14.53
2018-05-02T17:58:53.522Z,14.20
2018-05-02T18:01:20.213Z,13.90
2018-05-02T18:03:51.415Z,12.83
2018-05-02T18:06:17.929Z,13.07
2018-05-02T18:08:44.937Z,12.30
2018-05-02T18:11:11.505Z,11.17
2018-05-02T18:13:41.606Z,11.80
2018-05-02T18:16:08.296Z,12.33
2018-05-02T18:18:35.029Z,12.17
2018-05-02T18:21:01.713Z,12.20
2018-05-02T18:23:31.841Z,13.30
2018-05-02T18:25:58.600Z,12.23
2018-05-02T18:28:25.227Z,12.47
2018-05-02T18:30:51.929Z,11.47
2018-05-02T18:33:25.968Z,11.50
2018-05-02T18:35:52.473Z,11.87
2018-05-02T18:38:19.190Z,10.93
2018-05-02T18:40:45.892Z,12.63
2018-05-02T18:43:18.698Z,12.07
2018-05-02T18:45:45.737Z,12.17
2018-05-02T18:48:12.398Z,11.37
2018-05-02T18:50:39.118Z,11.57
2018-05-02T18:53:06.484Z,12.23
2018-05-02T18:55:34.094Z,12.60
2018-05-02T18:58:00.832Z,11.60
2018-05-02T19:00:27.466Z,12.33
2018-05-02T19:02:54.132Z,11.57
2018-05-02T19:05:24.513Z,10.50
2018-05-02T19:07:51.156Z,10.93
2018-05-02T19:10:17.945Z,10.90
2018-05-02T19:12:44.650Z,10.93
2018-05-02T19:15:12.193Z,11.80
2018-05-02T19:20:36.939Z,12.27
2018-05-02T19:23:03.913Z,12.10
2018-05-02T19:25:36.598Z,11.37
2018-05-02T19:28:03.298Z,12.20
2018-05-02T19:30:29.857Z,12.10
2018-05-02T19:33:02.548Z,12.17
2018-05-02T19:35:29.289Z,12.50
2018-05-02T19:37:55.973Z,12.33
2018-05-02T19:40:28.598Z,12.27
2018-05-02T19:43:01.212Z,12.23
2018-05-02T19:45:27.922Z,11.77
2018-05-02T19:47:55.302Z,12.20
2018-05-02T19:50:21.913Z,12.50
2018-05-02T19:52:48.548Z,12.23
2018-05-02T19:55:18.575Z,12.20
2018-05-02T19:57:45.242Z,11.50
2018-05-02T20:00:17.952Z,12.10
2018-05-02T20:02:50.573Z,12.93
2018-05-02T20:05:17.306Z,11.70
2018-05-02T20:07:44.059Z,12.47
2018-05-02T20:10:16.730Z,12.10
2018-05-02T20:12:49.326Z,13.43
2018-05-02T20:15:16.026Z,12.07
2018-05-02T20:17:42.681Z,12.30
2018-05-02T20:20:09.402Z,12.57
2018-05-02T20:22:36.850Z,12.27
2018-05-02T20:25:07.318Z,12.87
2018-05-02T20:27:34.085Z,12.47
2018-05-02T20:30:00.729Z,13.00
2018-05-02T20:32:27.368Z,12.13
2018-05-02T20:34:57.468Z,12.50
2018-05-02T20:37:24.180Z,13.33
2018-05-02T20:39:50.858Z,11.83
2018-05-02T20:42:17.589Z,11.93
2018-05-02T20:44:44.392Z,12.03
2018-05-02T20:47:11.119Z,12.00
2018-05-02T20:49:37.701Z,12.57
2018-05-02T20:52:04.293Z,13.13
2018-05-02T20:54:32.020Z,13.47
2018-05-02T20:56:58.722Z,12.00
2018-05-02T20:59:25.281Z,13.77
2018-05-02T21:01:52.007Z,12.40
2018-05-02T21:04:18.700Z,12.43
2018-05-02T21:06:45.454Z,12.03
2018-05-02T21:09:12.223Z,11.83
2018-05-02T21:11:38.775Z,11.50
2018-05-02T21:14:07.446Z,12.33
2018-05-02T21:16:34.216Z,12.40
2018-05-02T21:19:00.952Z,12.53
2018-05-02T21:21:27.690Z,13.07
2018-05-02T21:23:57.277Z,12.50
2018-05-02T21:26:23.994Z,12.57
2018-05-02T21:28:51.460Z,12.23
2018-05-02T21:31:18.158Z,13.83
2018-05-02T21:33:49.765Z,12.03
2018-05-02T21:36:16.481Z,12.83
2018-05-02T21:38:43.179Z,12.73
2018-05-02T21:41:09.797Z,11.80
2018-05-02T21:43:40.389Z,13.20
2018-05-02T21:46:07.185Z,12.13
2018-05-02T21:48:34.020Z,12.43
2018-05-02T21:51:01.083Z,13.03
2018-05-02T21:53:31.534Z,13.17
2018-05-02T21:55:58.068Z,12.53
2018-05-02T21:58:24.705Z,12.53
2018-05-02T22:00:51.352Z,12.23
2018-05-02T22:03:19.269Z,11.93
2018-05-02T22:05:45.862Z,11.80
2018-05-02T22:08:12.503Z,13.47
2018-05-02T22:10:39.188Z,12.57
2018-05-02T22:13:05.960Z,13.40
2018-05-02T22:15:33.326Z,12.80
2018-05-02T22:18:00.231Z,12.97
2018-05-02T22:20:26.957Z,12.20
2018-05-02T22:22:56.628Z,12.90
2018-05-02T22:25:23.213Z,13.83
2018-05-02T22:27:49.937Z,12.80
2018-05-02T22:30:16.649Z,13.03
2018-05-02T22:32:44.326Z,12.90
2018-05-02T22:35:11.033Z,11.97
2018-05-02T22:37:37.730Z,12.90
2018-05-02T22:40:04.170Z,13.00
2018-05-02T22:42:30.835Z,12.47
2018-05-02T22:44:57.326Z,11.93
2018-05-02T22:47:23.814Z,13.73
2018-05-02T22:49:50.433Z,12.77
2018-05-02T22:52:17.157Z,12.30
2018-05-02T22:54:44.878Z,12.27
2018-05-02T22:57:11.509Z,12.33
2018-05-02T22:59:38.306Z,12.27
2018-05-02T23:02:04.937Z,11.27
2018-05-02T23:04:37.024Z,12.27
2018-05-02T23:07:03.709Z,12.20
2018-05-02T23:09:30.261Z,11.73
2018-05-02T23:11:57.324Z,11.73
2018-05-02T23:14:27.878Z,11.97
2018-05-02T23:16:54.518Z,11.37
2018-05-02T23:19:21.554Z,11.03
2018-05-02T23:21:48.023Z,10.90
2018-05-02T23:24:15.654Z,11.17
2018-05-02T23:26:42.310Z,11.17
2018-05-02T23:29:09.009Z,11.57
2018-05-02T23:31:36.021Z,10.57
2018-05-02T23:34:05.889Z,10.83
2018-05-02T23:36:32.684Z,11.43
2018-05-02T23:38:59.209Z,11.70
2018-05-02T23:41:25.974Z,11.10
2018-05-02T23:43:56.381Z,10.70
2018-05-02T23:46:22.972Z,11.53
2018-05-02T23:48:49.709Z,12.33
2018-05-02T23:51:16.189Z,11.73
2018-05-02T23:53:46.174Z,10.90
2018-05-02T23:56:12.937Z,11.43
2018-05-02T23:58:39.627Z,10.70
